sensor_id;sensor_type;location;lat;lon;timestamp;temperature;humidity
13253;DHT22;6693;54.370;10.132;2022-08-05T00:01:42;24.30;1.00
13253;DHT22;6693;54.370;10.132;2022-08-05T00:03:43;24.10;1.00
13253;DHT22;6693;54.370;10.132;2022-08-05T00:05:45;24.00;1.00
13253;DHT22;6693;54.370;10.132;2022-08-05T00:07:47;24.10;1.00
13253;DHT22;6693;54.370;10.132;2022-08-05T00:09:50;25.10;1.00
13253;DHT22;6693;54.370;10.132;2022-08-05T00:11:51;22.90;1.00
13253;DHT22;6693;54.370;10.132;2022-08-05T00:13:53;23.90;1.00
13253;DHT22;6693;54.370;10.132;2022-08-05T00:15:55;23.90;1.00
13253;DHT22;6693;54.370;10.132;2022-08-05T00:17:56;23.90;99.90
13253;DHT22;6693;54.370;10.132;2022-08-05T00:19:58;23.70;99.90
13253;DHT22;6693;54.370;10.132;2022-08-05T00:22:00;23.50;99.90
13253;DHT22;6693;54.370;10.132;2022-08-05T00:24:02;23.40;99.90
13253;DHT22;6693;54.370;10.132;2022-08-05T00:26:06;23.30;99.90
13253;DHT22;6693;54.370;10.132;2022-08-05T00:28:08;23.10;99.90
13253;DHT22;6693;54.370;10.132;2022-08-05T00:30:10;22.90;1.00
13253;DHT22;6693;54.370;10.132;2022-08-05T00:32:12;22.90;1.00
13253;DHT22;6693;54.370;10.132;2022-08-05T00:34:13;23.90;1.00
13253;DHT22;6693;54.370;10.132;2022-08-05T00:36:15;23.00;1.00
13253;DHT22;6693;54.370;10.132;2022-08-05T00:38:17;23.00;1.00
13253;DHT22;6693;54.370;10.132;2022-08-05T00:40:19;23.30;1.00
13253;DHT22;6693;54.370;10.132;2022-08-05T00:42:34;23.00;1.00
13253;DHT22;6693;54.370;10.132;2022-08-05T00:44:36;23.00;1.00
13253;DHT22;6693;54.370;10.132;2022-08-05T00:46:37;23.40;1.00
13253;DHT22;6693;54.370;10.132;2022-08-05T00:48:39;22.80;1.00
13253;DHT22;6693;54.370;10.132;2022-08-05T00:50:44;22.90;1.00
13253;DHT22;6693;54.370;10.132;2022-08-05T00:52:46;23.00;1.00
13253;DHT22;6693;54.370;10.132;2022-08-05T00:54:47;23.00;99.90
13253;DHT22;6693;54.370;10.132;2022-08-05T00:56:49;22.90;99.90
13253;DHT22;6693;54.370;10.132;2022-08-05T00:58:52;22.80;99.90
13253;DHT22;6693;54.370;10.132;2022-08-05T01:00:54;22.60;1.00
13253;DHT22;6693;54.370;10.132;2022-08-05T01:02:56;22.50;1.00
13253;DHT22;6693;54.370;10.132;2022-08-05T01:04:58;22.50;1.00
13253;DHT22;6693;54.370;10.132;2022-08-05T01:07:00;22.50;1.00
13253;DHT22;6693;54.370;10.132;2022-08-05T01:09:01;22.50;1.00
13253;DHT22;6693;54.370;10.132;2022-08-05T01:11:10;22.60;1.00
13253;DHT22;6693;54.370;10.132;2022-08-05T01:13:17;25.00;1.00
13253;DHT22;6693;54.370;10.132;2022-08-05T01:15:26;23.00;1.00
13253;DHT22;6693;54.370;10.132;2022-08-05T01:17:33;22.60;1.00
13253;DHT22;6693;54.370;10.132;2022-08-05T01:19:40;22.50;1.00
13253;DHT22;6693;54.370;10.132;2022-08-05T01:22:03;22.50;1.00
13253;DHT22;6693;54.370;10.132;2022-08-05T01:24:18;22.50;1.00
13253;DHT22;6693;54.370;10.132;2022-08-05T01:26:33;23.30;1.00
13253;DHT22;6693;54.370;10.132;2022-08-05T01:28:42;22.50;1.00
13253;DHT22;6693;54.370;10.132;2022-08-05T01:30:50;22.50;1.00
13253;DHT22;6693;54.370;10.132;2022-08-05T01:32:53;22.60;1.00
13253;DHT22;6693;54.370;10.132;2022-08-05T01:34:59;22.70;1.00
13253;DHT22;6693;54.370;10.132;2022-08-05T01:37:07;22.80;1.00
13253;DHT22;6693;54.370;10.132;2022-08-05T01:39:10;22.80;1.00
13253;DHT22;6693;54.370;10.132;2022-08-05T01:41:17;22.80;1.00
13253;DHT22;6693;54.370;10.132;2022-08-05T01:43:21;22.80;1.00
13253;DHT22;6693;54.370;10.132;2022-08-05T01:45:25;22.80;1.00
13253;DHT22;6693;54.370;10.132;2022-08-05T01:47:30;22.70;1.00
13253;DHT22;6693;54.370;10.132;2022-08-05T01:49:32;22.80;1.00
13253;DHT22;6693;54.370;10.132;2022-08-05T01:51:35;22.80;1.00
13253;DHT22;6693;54.370;10.132;2022-08-05T01:53:39;22.80;1.00
13253;DHT22;6693;54.370;10.132;2022-08-05T01:55:43;22.70;1.00
13253;DHT22;6693;54.370;10.132;2022-08-05T01:57:46;22.80;1.00
13253;DHT22;6693;54.370;10.132;2022-08-05T01:59:50;22.70;1.00
13253;DHT22;6693;54.370;10.132;2022-08-05T02:01:56;22.80;1.00
13253;DHT22;6693;54.370;10.132;2022-08-05T02:04:00;22.80;1.00
13253;DHT22;6693;54.370;10.132;2022-08-05T02:06:06;22.80;1.00
13253;DHT22;6693;54.370;10.132;2022-08-05T02:08:08;22.80;1.00
13253;DHT22;6693;54.370;10.132;2022-08-05T02:10:10;22.90;1.00
13253;DHT22;6693;54.370;10.132;2022-08-05T02:12:15;22.80;1.00
13253;DHT22;6693;54.370;10.132;2022-08-05T02:14:26;22.80;1.00
13253;DHT22;6693;54.370;10.132;2022-08-05T02:16:31;22.90;1.00
13253;DHT22;6693;54.370;10.132;2022-08-05T02:18:40;23.00;27.60
13253;DHT22;6693;54.370;10.132;2022-08-05T02:20:46;23.90;1.00
13253;DHT22;6693;54.370;10.132;2022-08-05T02:22:54;23.00;1.00
13253;DHT22;6693;54.370;10.132;2022-08-05T02:25:00;23.10;1.00
13253;DHT22;6693;54.370;10.132;2022-08-05T02:27:04;23.10;1.00
13253;DHT22;6693;54.370;10.132;2022-08-05T02:29:07;22.90;1.00
13253;DHT22;6693;54.370;10.132;2022-08-05T02:31:14;22.90;1.00
13253;DHT22;6693;54.370;10.132;2022-08-05T02:33:19;22.90;1.00
13253;DHT22;6693;54.370;10.132;2022-08-05T02:35:24;22.80;1.00
13253;DHT22;6693;54.370;10.132;2022-08-05T02:37:27;22.80;1.00
13253;DHT22;6693;54.370;10.132;2022-08-05T02:39:36;22.90;1.00
13253;DHT22;6693;54.370;10.132;2022-08-05T02:41:39;22.90;1.00
13253;DHT22;6693;54.370;10.132;2022-08-05T02:43:44;23.00;1.00
13253;DHT22;6693;54.370;10.132;2022-08-05T02:45:47;23.00;1.00
13253;DHT22;6693;54.370;10.132;2022-08-05T02:47:51;23.00;1.00
13253;DHT22;6693;54.370;10.132;2022-08-05T02:49:54;22.90;1.00
13253;DHT22;6693;54.370;10.132;2022-08-05T02:51:57;22.90;1.00
13253;DHT22;6693;54.370;10.132;2022-08-05T02:54:00;24.30;1.00
13253;DHT22;6693;54.370;10.132;2022-08-05T02:56:03;22.80;1.00
13253;DHT22;6693;54.370;10.132;2022-08-05T02:58:05;22.80;1.00
13253;DHT22;6693;54.370;10.132;2022-08-05T03:00:08;22.70;1.00
13253;DHT22;6693;54.370;10.132;2022-08-05T03:02:10;22.70;31.80
13253;DHT22;6693;54.370;10.132;2022-08-05T03:04:14;23.40;99.90
13253;DHT22;6693;54.370;10.132;2022-08-05T03:06:16;22.90;95.30
13253;DHT22;6693;54.370;10.132;2022-08-05T03:08:20;22.90;99.90
13253;DHT22;6693;54.370;10.132;2022-08-05T03:10:23;23.30;99.90
13253;DHT22;6693;54.370;10.132;2022-08-05T03:12:31;23.10;99.90
13253;DHT22;6693;54.370;10.132;2022-08-05T03:14:33;22.80;99.90
13253;DHT22;6693;54.370;10.132;2022-08-05T03:16:35;22.80;99.90
13253;DHT22;6693;54.370;10.132;2022-08-05T03:18:36;22.70;99.90
13253;DHT22;6693;54.370;10.132;2022-08-05T03:20:38;22.70;99.90
13253;DHT22;6693;54.370;10.132;2022-08-05T03:22:41;22.80;99.90
13253;DHT22;6693;54.370;10.132;2022-08-05T03:24:45;22.90;1.00
13253;DHT22;6693;54.370;10.132;2022-08-05T03:26:47;22.80;1.00
13253;DHT22;6693;54.370;10.132;2022-08-05T03:28:49;22.80;1.00
13253;DHT22;6693;54.370;10.132;2022-08-05T03:30:51;23.10;1.00
13253;DHT22;6693;54.370;10.132;2022-08-05T03:32:53;22.80;1.00
13253;DHT22;6693;54.370;10.132;2022-08-05T03:34:55;22.80;1.00
13253;DHT22;6693;54.370;10.132;2022-08-05T03:36:57;22.80;1.00
13253;DHT22;6693;54.370;10.132;2022-08-05T03:39:05;22.80;1.00
13253;DHT22;6693;54.370;10.132;2022-08-05T03:41:08;22.80;1.00
13253;DHT22;6693;54.370;10.132;2022-08-05T03:43:11;23.30;99.90
13253;DHT22;6693;54.370;10.132;2022-08-05T03:45:13;22.50;99.90
13253;DHT22;6693;54.370;10.132;2022-08-05T03:47:15;22.30;1.00
13253;DHT22;6693;54.370;10.132;2022-08-05T03:49:16;21.10;1.00
13253;DHT22;6693;54.370;10.132;2022-08-05T03:51:23;22.00;1.00
13253;DHT22;6693;54.370;10.132;2022-08-05T03:53:31;21.90;99.90
13253;DHT22;6693;54.370;10.132;2022-08-05T03:55:36;22.00;99.90
13253;DHT22;6693;54.370;10.132;2022-08-05T03:57:42;22.10;99.90
13253;DHT22;6693;54.370;10.132;2022-08-05T03:59:50;22.00;1.00
13253;DHT22;6693;54.370;10.132;2022-08-05T04:01:54;22.00;1.00
13253;DHT22;6693;54.370;10.132;2022-08-05T04:03:57;22.10;1.00
13253;DHT22;6693;54.370;10.132;2022-08-05T04:06:00;22.10;1.00
13253;DHT22;6693;54.370;10.132;2022-08-05T04:08:04;22.10;58.00
13253;DHT22;6693;54.370;10.132;2022-08-05T04:10:07;22.10;99.90
13253;DHT22;6693;54.370;10.132;2022-08-05T04:12:09;22.10;99.90
13253;DHT22;6693;54.370;10.132;2022-08-05T04:14:12;20.00;99.90
13253;DHT22;6693;54.370;10.132;2022-08-05T04:16:14;22.20;99.90
13253;DHT22;6693;54.370;10.132;2022-08-05T04:18:16;22.30;99.90
13253;DHT22;6693;54.370;10.132;2022-08-05T04:20:18;22.30;99.90
13253;DHT22;6693;54.370;10.132;2022-08-05T04:22:20;22.40;1.00
13253;DHT22;6693;54.370;10.132;2022-08-05T04:24:22;22.40;97.70
13253;DHT22;6693;54.370;10.132;2022-08-05T04:26:23;22.40;87.90
13253;DHT22;6693;54.370;10.132;2022-08-05T04:28:25;22.40;1.00
13253;DHT22;6693;54.370;10.132;2022-08-05T04:30:28;22.40;1.00
13253;DHT22;6693;54.370;10.132;2022-08-05T04:32:30;22.30;1.00
13253;DHT22;6693;54.370;10.132;2022-08-05T04:34:31;22.30;1.00
13253;DHT22;6693;54.370;10.132;2022-08-05T04:36:33;22.30;1.00
13253;DHT22;6693;54.370;10.132;2022-08-05T04:38:35;22.40;99.90
13253;DHT22;6693;54.370;10.132;2022-08-05T04:40:39;22.40;99.90
13253;DHT22;6693;54.370;10.132;2022-08-05T04:42:40;22.40;60.10
13253;DHT22;6693;54.370;10.132;2022-08-05T04:44:42;22.40;1.00
13253;DHT22;6693;54.370;10.132;2022-08-05T04:46:45;23.50;1.00
13253;DHT22;6693;54.370;10.132;2022-08-05T04:48:47;22.30;1.00
13253;DHT22;6693;54.370;10.132;2022-08-05T04:50:48;22.60;1.00
13253;DHT22;6693;54.370;10.132;2022-08-05T04:52:50;22.20;1.00
13253;DHT22;6693;54.370;10.132;2022-08-05T04:54:52;22.30;1.00
13253;DHT22;6693;54.370;10.132;2022-08-05T04:56:53;22.10;1.00
13253;DHT22;6693;54.370;10.132;2022-08-05T04:58:55;22.20;1.00
13253;DHT22;6693;54.370;10.132;2022-08-05T05:00:57;22.20;1.00
13253;DHT22;6693;54.370;10.132;2022-08-05T05:03:00;22.20;1.00
13253;DHT22;6693;54.370;10.132;2022-08-05T05:05:02;22.20;1.00
13253;DHT22;6693;54.370;10.132;2022-08-05T05:07:04;22.10;1.00
13253;DHT22;6693;54.370;10.132;2022-08-05T05:09:06;22.20;1.00
13253;DHT22;6693;54.370;10.132;2022-08-05T05:11:08;22.10;1.00
13253;DHT22;6693;54.370;10.132;2022-08-05T05:13:10;22.10;1.00
13253;DHT22;6693;54.370;10.132;2022-08-05T05:15:11;22.10;1.00
13253;DHT22;6693;54.370;10.132;2022-08-05T05:17:13;22.10;1.00
13253;DHT22;6693;54.370;10.132;2022-08-05T05:19:16;22.10;1.00
13253;DHT22;6693;54.370;10.132;2022-08-05T05:21:18;22.10;1.00
13253;DHT22;6693;54.370;10.132;2022-08-05T05:23:19;22.10;1.00
13253;DHT22;6693;54.370;10.132;2022-08-05T05:25:21;22.00;1.00
13253;DHT22;6693;54.370;10.132;2022-08-05T05:27:23;22.00;1.00
13253;DHT22;6693;54.370;10.132;2022-08-05T05:29:24;22.00;1.00
13253;DHT22;6693;54.370;10.132;2022-08-05T05:31:26;22.10;20.10
13253;DHT22;6693;54.370;10.132;2022-08-05T05:33:27;22.10;1.00
13253;DHT22;6693;54.370;10.132;2022-08-05T05:35:32;22.20;1.00
13253;DHT22;6693;54.370;10.132;2022-08-05T05:37:33;22.50;1.00
13253;DHT22;6693;54.370;10.132;2022-08-05T05:39:35;22.30;1.00
13253;DHT22;6693;54.370;10.132;2022-08-05T05:41:37;22.30;1.00
13253;DHT22;6693;54.370;10.132;2022-08-05T05:43:38;22.30;1.00
13253;DHT22;6693;54.370;10.132;2022-08-05T05:45:40;22.40;1.00
13253;DHT22;6693;54.370;10.132;2022-08-05T05:47:42;22.40;1.00
13253;DHT22;6693;54.370;10.132;2022-08-05T05:49:44;22.40;1.00
13253;DHT22;6693;54.370;10.132;2022-08-05T05:51:47;22.50;1.00
13253;DHT22;6693;54.370;10.132;2022-08-05T05:53:49;22.80;1.00
13253;DHT22;6693;54.370;10.132;2022-08-05T05:55:51;22.50;1.00
13253;DHT22;6693;54.370;10.132;2022-08-05T05:57:53;22.50;1.00
13253;DHT22;6693;54.370;10.132;2022-08-05T05:59:54;22.90;1.00
13253;DHT22;6693;54.370;10.132;2022-08-05T06:01:56;22.50;1.00
13253;DHT22;6693;54.370;10.132;2022-08-05T06:03:58;22.50;1.00
13253;DHT22;6693;54.370;10.132;2022-08-05T06:05:59;22.50;1.00
13253;DHT22;6693;54.370;10.132;2022-08-05T06:08:03;22.50;1.00
13253;DHT22;6693;54.370;10.132;2022-08-05T06:10:06;22.50;1.00
13253;DHT22;6693;54.370;10.132;2022-08-05T06:12:08;22.50;99.90
13253;DHT22;6693;54.370;10.132;2022-08-05T06:14:09;22.50;1.00
13253;DHT22;6693;54.370;10.132;2022-08-05T06:16:11;22.50;1.00
13253;DHT22;6693;54.370;10.132;2022-08-05T06:18:13;22.40;1.00
13253;DHT22;6693;54.370;10.132;2022-08-05T06:20:14;22.70;1.00
13253;DHT22;6693;54.370;10.132;2022-08-05T06:22:22;22.40;1.00
13253;DHT22;6693;54.370;10.132;2022-08-05T06:24:26;22.40;1.00
13253;DHT22;6693;54.370;10.132;2022-08-05T06:26:28;22.40;1.00
13253;DHT22;6693;54.370;10.132;2022-08-05T06:28:29;22.40;1.00
13253;DHT22;6693;54.370;10.132;2022-08-05T06:30:31;22.50;1.00
13253;DHT22;6693;54.370;10.132;2022-08-05T06:32:33;23.00;1.00
13253;DHT22;6693;54.370;10.132;2022-08-05T06:34:34;22.50;1.00
13253;DHT22;6693;54.370;10.132;2022-08-05T06:36:36;22.70;1.00
13253;DHT22;6693;54.370;10.132;2022-08-05T06:38:37;22.70;1.00
13253;DHT22;6693;54.370;10.132;2022-08-05T06:40:41;23.00;99.90
13253;DHT22;6693;54.370;10.132;2022-08-05T06:42:42;22.70;99.90
13253;DHT22;6693;54.370;10.132;2022-08-05T06:44:44;22.70;99.90
13253;DHT22;6693;54.370;10.132;2022-08-05T06:46:46;22.60;99.90
13253;DHT22;6693;54.370;10.132;2022-08-05T06:48:47;22.70;99.90
13253;DHT22;6693;54.370;10.132;2022-08-05T06:50:49;22.70;99.90
13253;DHT22;6693;54.370;10.132;2022-08-05T06:52:51;23.30;99.90
13253;DHT22;6693;54.370;10.132;2022-08-05T06:54:52;22.80;64.50
13253;DHT22;6693;54.370;10.132;2022-08-05T06:56:55;22.80;30.40
13253;DHT22;6693;54.370;10.132;2022-08-05T06:58:57;22.90;64.10
13253;DHT22;6693;54.370;10.132;2022-08-05T07:00:59;23.00;67.30
13253;DHT22;6693;54.370;10.132;2022-08-05T07:03:01;23.00;1.00
13253;DHT22;6693;54.370;10.132;2022-08-05T07:05:03;23.50;1.00
13253;DHT22;6693;54.370;10.132;2022-08-05T07:07:05;23.10;1.00
13253;DHT22;6693;54.370;10.132;2022-08-05T07:09:07;23.20;1.00
13253;DHT22;6693;54.370;10.132;2022-08-05T07:11:09;23.30;1.00
13253;DHT22;6693;54.370;10.132;2022-08-05T07:13:12;23.30;1.00
13253;DHT22;6693;54.370;10.132;2022-08-05T07:15:31;23.30;1.00
13253;DHT22;6693;54.370;10.132;2022-08-05T07:17:50;23.30;1.00
13253;DHT22;6693;54.370;10.132;2022-08-05T07:19:52;23.40;1.00
13253;DHT22;6693;54.370;10.132;2022-08-05T07:21:56;23.40;1.00
13253;DHT22;6693;54.370;10.132;2022-08-05T07:23:57;23.40;1.00
13253;DHT22;6693;54.370;10.132;2022-08-05T07:25:59;23.40;1.00
13253;DHT22;6693;54.370;10.132;2022-08-05T07:28:01;23.40;99.90
13253;DHT22;6693;54.370;10.132;2022-08-05T07:30:05;23.30;99.90
13253;DHT22;6693;54.370;10.132;2022-08-05T07:32:07;23.30;99.90
13253;DHT22;6693;54.370;10.132;2022-08-05T07:34:09;23.70;99.90
13253;DHT22;6693;54.370;10.132;2022-08-05T07:36:11;23.30;99.90
13253;DHT22;6693;54.370;10.132;2022-08-05T07:38:14;23.30;99.90
13253;DHT22;6693;54.370;10.132;2022-08-05T07:40:16;23.60;99.90
13253;DHT22;6693;54.370;10.132;2022-08-05T07:42:17;23.40;99.90
13253;DHT22;6693;54.370;10.132;2022-08-05T07:44:19;23.40;99.90
13253;DHT22;6693;54.370;10.132;2022-08-05T07:46:23;23.50;99.90
13253;DHT22;6693;54.370;10.132;2022-08-05T07:48:25;23.60;99.90
13253;DHT22;6693;54.370;10.132;2022-08-05T07:50:26;23.50;28.20
13253;DHT22;6693;54.370;10.132;2022-08-05T07:52:28;23.80;71.60
13253;DHT22;6693;54.370;10.132;2022-08-05T07:54:30;24.10;99.90
13253;DHT22;6693;54.370;10.132;2022-08-05T07:56:31;23.60;78.40
13253;DHT22;6693;54.370;10.132;2022-08-05T07:58:33;23.60;1.00
13253;DHT22;6693;54.370;10.132;2022-08-05T08:00:35;23.60;1.00
13253;DHT22;6693;54.370;10.132;2022-08-05T08:02:38;23.70;1.00
13253;DHT22;6693;54.370;10.132;2022-08-05T08:04:39;23.80;1.00
13253;DHT22;6693;54.370;10.132;2022-08-05T08:06:41;23.70;1.00
13253;DHT22;6693;54.370;10.132;2022-08-05T08:08:43;23.60;1.00
13253;DHT22;6693;54.370;10.132;2022-08-05T08:10:45;23.70;1.00
13253;DHT22;6693;54.370;10.132;2022-08-05T08:12:46;23.60;1.00
13253;DHT22;6693;54.370;10.132;2022-08-05T08:14:48;23.60;1.00
13253;DHT22;6693;54.370;10.132;2022-08-05T08:16:50;23.70;1.00
13253;DHT22;6693;54.370;10.132;2022-08-05T08:18:53;23.70;1.00
13253;DHT22;6693;54.370;10.132;2022-08-05T08:20:54;23.80;1.00
13253;DHT22;6693;54.370;10.132;2022-08-05T08:22:57;23.70;1.00
13253;DHT22;6693;54.370;10.132;2022-08-05T08:24:59;23.70;1.00
13253;DHT22;6693;54.370;10.132;2022-08-05T08:27:02;23.70;1.00
13253;DHT22;6693;54.370;10.132;2022-08-05T08:29:03;23.70;1.00
13253;DHT22;6693;54.370;10.132;2022-08-05T08:31:05;23.60;1.00
13253;DHT22;6693;54.370;10.132;2022-08-05T08:33:08;23.80;1.00
13253;DHT22;6693;54.370;10.132;2022-08-05T08:35:11;23.70;1.00
13253;DHT22;6693;54.370;10.132;2022-08-05T08:37:13;23.80;1.00
13253;DHT22;6693;54.370;10.132;2022-08-05T08:39:14;23.80;1.00
13253;DHT22;6693;54.370;10.132;2022-08-05T08:41:18;24.00;1.00
13253;DHT22;6693;54.370;10.132;2022-08-05T08:43:20;23.90;1.00
13253;DHT22;6693;54.370;10.132;2022-08-05T08:45:22;24.00;1.00
13253;DHT22;6693;54.370;10.132;2022-08-05T08:47:26;24.00;99.90
13253;DHT22;6693;54.370;10.132;2022-08-05T08:49:31;24.00;99.90
13253;DHT22;6693;54.370;10.132;2022-08-05T08:51:36;24.00;99.90
13253;DHT22;6693;54.370;10.132;2022-08-05T08:53:39;24.10;99.90
13253;DHT22;6693;54.370;10.132;2022-08-05T08:55:40;24.60;99.90
13253;DHT22;6693;54.370;10.132;2022-08-05T08:57:42;24.10;99.90
13253;DHT22;6693;54.370;10.132;2022-08-05T08:59:45;24.10;99.90
13253;DHT22;6693;54.370;10.132;2022-08-05T09:01:47;24.10;99.90
13253;DHT22;6693;54.370;10.132;2022-08-05T09:03:51;24.10;99.90
13253;DHT22;6693;54.370;10.132;2022-08-05T09:05:53;24.20;99.90
13253;DHT22;6693;54.370;10.132;2022-08-05T09:07:56;24.20;99.90
13253;DHT22;6693;54.370;10.132;2022-08-05T09:09:58;24.20;99.90
13253;DHT22;6693;54.370;10.132;2022-08-05T09:12:00;24.40;99.90
13253;DHT22;6693;54.370;10.132;2022-08-05T09:14:02;24.40;99.90
13253;DHT22;6693;54.370;10.132;2022-08-05T09:16:04;24.40;99.90
13253;DHT22;6693;54.370;10.132;2022-08-05T09:18:08;24.30;99.90
13253;DHT22;6693;54.370;10.132;2022-08-05T09:20:11;24.50;99.90
13253;DHT22;6693;54.370;10.132;2022-08-05T09:22:13;24.50;57.10
13253;DHT22;6693;54.370;10.132;2022-08-05T09:24:16;24.60;1.00
13253;DHT22;6693;54.370;10.132;2022-08-05T09:26:18;24.40;1.00
13253;DHT22;6693;54.370;10.132;2022-08-05T09:28:22;24.50;1.00
13253;DHT22;6693;54.370;10.132;2022-08-05T09:30:23;24.40;1.00
13253;DHT22;6693;54.370;10.132;2022-08-05T09:32:33;24.40;1.00
13253;DHT22;6693;54.370;10.132;2022-08-05T09:34:47;25.20;1.00
13253;DHT22;6693;54.370;10.132;2022-08-05T09:36:49;24.40;1.00
13253;DHT22;6693;54.370;10.132;2022-08-05T09:38:56;24.40;1.00
13253;DHT22;6693;54.370;10.132;2022-08-05T09:41:04;24.40;1.00
13253;DHT22;6693;54.370;10.132;2022-08-05T09:43:07;24.50;1.00
13253;DHT22;6693;54.370;10.132;2022-08-05T09:45:35;24.50;1.00
13253;DHT22;6693;54.370;10.132;2022-08-05T09:47:39;24.60;1.00
13253;DHT22;6693;54.370;10.132;2022-08-05T09:49:44;24.70;1.00
13253;DHT22;6693;54.370;10.132;2022-08-05T09:51:46;24.70;1.00
13253;DHT22;6693;54.370;10.132;2022-08-05T09:53:49;24.80;1.00
13253;DHT22;6693;54.370;10.132;2022-08-05T09:55:55;24.90;1.00
13253;DHT22;6693;54.370;10.132;2022-08-05T09:57:58;24.90;1.00
13253;DHT22;6693;54.370;10.132;2022-08-05T10:00:03;24.90;1.00
13253;DHT22;6693;54.370;10.132;2022-08-05T10:02:05;24.90;1.00
13253;DHT22;6693;54.370;10.132;2022-08-05T10:04:08;24.70;1.00
13253;DHT22;6693;54.370;10.132;2022-08-05T10:06:11;24.70;1.00
13253;DHT22;6693;54.370;10.132;2022-08-05T10:08:13;24.80;1.00
13253;DHT22;6693;54.370;10.132;2022-08-05T10:10:26;24.80;99.90
13253;DHT22;6693;54.370;10.132;2022-08-05T10:12:39;24.70;99.90
13253;DHT22;6693;54.370;10.132;2022-08-05T10:14:42;24.60;99.90
13253;DHT22;6693;54.370;10.132;2022-08-05T10:16:43;24.60;99.90
13253;DHT22;6693;54.370;10.132;2022-08-05T10:18:45;25.20;99.90
13253;DHT22;6693;54.370;10.132;2022-08-05T10:20:49;24.60;99.90
13253;DHT22;6693;54.370;10.132;2022-08-05T10:22:51;24.50;99.90
13253;DHT22;6693;54.370;10.132;2022-08-05T10:24:53;24.60;99.90
13253;DHT22;6693;54.370;10.132;2022-08-05T10:26:55;24.50;99.90
13253;DHT22;6693;54.370;10.132;2022-08-05T10:28:57;24.60;99.90
13253;DHT22;6693;54.370;10.132;2022-08-05T10:31:00;24.60;99.90
13253;DHT22;6693;54.370;10.132;2022-08-05T10:33:03;24.60;99.90
13253;DHT22;6693;54.370;10.132;2022-08-05T10:35:05;24.70;99.90
13253;DHT22;6693;54.370;10.132;2022-08-05T10:37:07;24.70;99.90
13253;DHT22;6693;54.370;10.132;2022-08-05T10:39:13;24.80;99.90
13253;DHT22;6693;54.370;10.132;2022-08-05T10:41:21;25.40;99.90
13253;DHT22;6693;54.370;10.132;2022-08-05T10:43:35;24.90;99.90
13253;DHT22;6693;54.370;10.132;2022-08-05T10:45:40;24.70;99.90
13253;DHT22;6693;54.370;10.132;2022-08-05T10:47:43;24.60;99.90
13253;DHT22;6693;54.370;10.132;2022-08-05T10:50:04;24.60;99.90
13253;DHT22;6693;54.370;10.132;2022-08-05T10:52:09;23.80;99.90
13253;DHT22;6693;54.370;10.132;2022-08-05T10:54:10;24.60;99.90
13253;DHT22;6693;54.370;10.132;2022-08-05T10:56:14;24.60;99.90
13253;DHT22;6693;54.370;10.132;2022-08-05T10:58:16;24.60;99.90
13253;DHT22;6693;54.370;10.132;2022-08-05T11:00:20;24.60;99.90
13253;DHT22;6693;54.370;10.132;2022-08-05T11:02:23;24.70;99.90
13253;DHT22;6693;54.370;10.132;2022-08-05T11:04:26;24.50;93.50
13253;DHT22;6693;54.370;10.132;2022-08-05T11:06:28;24.70;99.90
13253;DHT22;6693;54.370;10.132;2022-08-05T11:08:30;25.30;99.90
13253;DHT22;6693;54.370;10.132;2022-08-05T11:10:33;24.50;26.70
13253;DHT22;6693;54.370;10.132;2022-08-05T11:12:43;24.30;1.00
13253;DHT22;6693;54.370;10.132;2022-08-05T11:14:46;24.60;11.10
13253;DHT22;6693;54.370;10.132;2022-08-05T11:19:25;24.00;99.90
13253;DHT22;6693;54.370;10.132;2022-08-05T11:21:30;24.30;99.90
13253;DHT22;6693;54.370;10.132;2022-08-05T11:23:35;24.30;86.90
13253;DHT22;6693;54.370;10.132;2022-08-05T11:25:38;24.30;99.90
13253;DHT22;6693;54.370;10.132;2022-08-05T11:27:43;24.00;57.20
13253;DHT22;6693;54.370;10.132;2022-08-05T11:29:58;24.60;99.90
13253;DHT22;6693;54.370;10.132;2022-08-05T11:34:37;24.10;99.90
13253;DHT22;6693;54.370;10.132;2022-08-05T11:36:44;24.10;99.90
13253;DHT22;6693;54.370;10.132;2022-08-05T11:38:50;24.10;99.90
13253;DHT22;6693;54.370;10.132;2022-08-05T11:41:01;24.30;99.90
13253;DHT22;6693;54.370;10.132;2022-08-05T11:43:03;24.20;99.90
13253;DHT22;6693;54.370;10.132;2022-08-05T11:45:06;24.20;99.90
13253;DHT22;6693;54.370;10.132;2022-08-05T11:47:08;24.20;99.90
13253;DHT22;6693;54.370;10.132;2022-08-05T11:49:13;24.20;99.90
13253;DHT22;6693;54.370;10.132;2022-08-05T11:51:16;24.50;99.90
13253;DHT22;6693;54.370;10.132;2022-08-05T11:53:18;24.60;99.90
13253;DHT22;6693;54.370;10.132;2022-08-05T11:55:20;24.30;99.90
13253;DHT22;6693;54.370;10.132;2022-08-05T11:57:27;24.80;99.90
13253;DHT22;6693;54.370;10.132;2022-08-05T11:59:30;24.20;99.90
13253;DHT22;6693;54.370;10.132;2022-08-05T12:01:33;24.30;99.90
13253;DHT22;6693;54.370;10.132;2022-08-05T12:03:41;24.10;99.90
13253;DHT22;6693;54.370;10.132;2022-08-05T12:05:44;24.10;99.90
13253;DHT22;6693;54.370;10.132;2022-08-05T12:07:47;24.00;99.90
13253;DHT22;6693;54.370;10.132;2022-08-05T12:09:53;23.90;99.90
13253;DHT22;6693;54.370;10.132;2022-08-05T12:11:55;24.00;99.90
13253;DHT22;6693;54.370;10.132;2022-08-05T12:14:00;24.00;99.90
13253;DHT22;6693;54.370;10.132;2022-08-05T12:16:02;23.90;99.90
13253;DHT22;6693;54.370;10.132;2022-08-05T12:18:04;23.90;99.90
13253;DHT22;6693;54.370;10.132;2022-08-05T12:20:07;23.90;99.90
13253;DHT22;6693;54.370;10.132;2022-08-05T12:22:09;24.00;99.90
13253;DHT22;6693;54.370;10.132;2022-08-05T12:24:14;24.20;99.90
13253;DHT22;6693;54.370;10.132;2022-08-05T12:26:16;23.90;99.90
13253;DHT22;6693;54.370;10.132;2022-08-05T12:28:32;23.80;99.90
13253;DHT22;6693;54.370;10.132;2022-08-05T12:30:37;23.50;99.90
13253;DHT22;6693;54.370;10.132;2022-08-05T12:32:43;23.50;99.90
13253;DHT22;6693;54.370;10.132;2022-08-05T12:34:45;23.40;99.90
13253;DHT22;6693;54.370;10.132;2022-08-05T12:36:47;23.30;99.90
13253;DHT22;6693;54.370;10.132;2022-08-05T12:38:50;23.30;1.00
13253;DHT22;6693;54.370;10.132;2022-08-05T12:40:55;23.20;1.00
13253;DHT22;6693;54.370;10.132;2022-08-05T12:42:57;23.30;1.00
13253;DHT22;6693;54.370;10.132;2022-08-05T12:45:04;23.30;1.00
13253;DHT22;6693;54.370;10.132;2022-08-05T12:47:06;23.40;1.00
13253;DHT22;6693;54.370;10.132;2022-08-05T12:49:09;23.40;1.00
13253;DHT22;6693;54.370;10.132;2022-08-05T12:51:12;23.50;1.00
13253;DHT22;6693;54.370;10.132;2022-08-05T12:53:16;23.50;1.00
13253;DHT22;6693;54.370;10.132;2022-08-05T12:55:19;23.50;1.00
13253;DHT22;6693;54.370;10.132;2022-08-05T12:57:23;23.40;1.00
13253;DHT22;6693;54.370;10.132;2022-08-05T12:59:26;23.50;1.00
13253;DHT22;6693;54.370;10.132;2022-08-05T13:01:28;23.50;1.00
13253;DHT22;6693;54.370;10.132;2022-08-05T13:03:30;23.50;1.00
13253;DHT22;6693;54.370;10.132;2022-08-05T13:05:33;23.50;1.00
13253;DHT22;6693;54.370;10.132;2022-08-05T13:07:38;23.60;1.00
13253;DHT22;6693;54.370;10.132;2022-08-05T13:09:41;23.70;1.00
13253;DHT22;6693;54.370;10.132;2022-08-05T13:11:44;23.80;1.00
13253;DHT22;6693;54.370;10.132;2022-08-05T13:13:49;23.70;1.00